sensor_id;sensor_type;location;lat;lon;timestamp;temperature;humidity
6110;DHT22;3085;49.444;11.054;2022-08-11T00:02:31;21.80;75.10
6110;DHT22;3085;49.444;11.054;2022-08-11T00:05:03;21.70;76.10
6110;DHT22;3085;49.444;11.054;2022-08-11T00:07:31;21.60;75.60
6110;DHT22;3085;49.444;11.054;2022-08-11T00:10:00;21.70;75.80
6110;DHT22;3085;49.444;11.054;2022-08-11T00:12:28;21.60;75.60
6110;DHT22;3085;49.444;11.054;2022-08-11T00:14:57;21.50;76.10
6110;DHT22;3085;49.444;11.054;2022-08-11T00:17:30;21.60;76.20
6110;DHT22;3085;49.444;11.054;2022-08-11T00:20:05;21.50;76.20
6110;DHT22;3085;49.444;11.054;2022-08-11T00:22:37;21.40;76.50
6110;DHT22;3085;49.444;11.054;2022-08-11T00:25:13;21.40;76.80
6110;DHT22;3085;49.444;11.054;2022-08-11T00:27:41;21.40;76.70
6110;DHT22;3085;49.444;11.054;2022-08-11T00:30:10;21.50;77.00
6110;DHT22;3085;49.444;11.054;2022-08-11T00:32:40;21.40;76.70
6110;DHT22;3085;49.444;11.054;2022-08-11T00:35:10;21.50;76.60
6110;DHT22;3085;49.444;11.054;2022-08-11T00:37:38;21.20;76.90
6110;DHT22;3085;49.444;11.054;2022-08-11T00:40:18;21.10;77.50
6110;DHT22;3085;49.444;11.054;2022-08-11T00:42:57;21.10;77.40
6110;DHT22;3085;49.444;11.054;2022-08-11T00:45:28;21.10;77.50
6110;DHT22;3085;49.444;11.054;2022-08-11T00:48:04;21.00;77.80
6110;DHT22;3085;49.444;11.054;2022-08-11T00:50:40;21.00;77.90
6110;DHT22;3085;49.444;11.054;2022-08-11T00:53:24;21.10;77.80
6110;DHT22;3085;49.444;11.054;2022-08-11T00:59:39;21.00;78.10
6110;DHT22;3085;49.444;11.054;2022-08-11T01:02:17;21.10;78.10
6110;DHT22;3085;49.444;11.054;2022-08-11T01:05:02;21.10;78.20
6110;DHT22;3085;49.444;11.054;2022-08-11T01:07:57;21.10;78.30
6110;DHT22;3085;49.444;11.054;2022-08-11T01:10:55;20.90;78.40
6110;DHT22;3085;49.444;11.054;2022-08-11T01:13:54;20.90;78.60
6110;DHT22;3085;49.444;11.054;2022-08-11T01:20:06;20.80;79.20
6110;DHT22;3085;49.444;11.054;2022-08-11T01:23:12;20.80;79.10
6110;DHT22;3085;49.444;11.054;2022-08-11T01:32:59;20.70;79.60
6110;DHT22;3085;49.444;11.054;2022-08-11T01:35:54;20.10;79.40
6110;DHT22;3085;49.444;11.054;2022-08-11T01:39:13;20.70;79.90
6110;DHT22;3085;49.444;11.054;2022-08-11T01:42:20;20.70;80.30
6110;DHT22;3085;49.444;11.054;2022-08-11T01:45:27;20.60;80.30
6110;DHT22;3085;49.444;11.054;2022-08-11T01:48:01;20.60;80.50
6110;DHT22;3085;49.444;11.054;2022-08-11T01:50:47;20.60;80.70
6110;DHT22;3085;49.444;11.054;2022-08-11T01:53:27;20.40;80.70
6110;DHT22;3085;49.444;11.054;2022-08-11T01:56:06;20.50;81.20
6110;DHT22;3085;49.444;11.054;2022-08-11T01:58:41;20.50;81.20
6110;DHT22;3085;49.444;11.054;2022-08-11T02:01:21;20.50;81.50
6110;DHT22;3085;49.444;11.054;2022-08-11T02:03:57;20.40;81.90
6110;DHT22;3085;49.444;11.054;2022-08-11T02:06:34;20.50;81.80
6110;DHT22;3085;49.444;11.054;2022-08-11T02:09:43;20.60;82.40
6110;DHT22;3085;49.444;11.054;2022-08-11T02:12:15;20.60;81.80
6110;DHT22;3085;49.444;11.054;2022-08-11T02:14:53;20.60;82.10
6110;DHT22;3085;49.444;11.054;2022-08-11T02:17:49;20.60;81.90
6110;DHT22;3085;49.444;11.054;2022-08-11T02:20:22;20.50;83.20
6110;DHT22;3085;49.444;11.054;2022-08-11T02:23:20;20.60;82.20
6110;DHT22;3085;49.444;11.054;2022-08-11T02:26:21;20.60;82.40
6110;DHT22;3085;49.444;11.054;2022-08-11T02:28:55;20.50;82.50
6110;DHT22;3085;49.444;11.054;2022-08-11T02:31:32;20.50;82.50
6110;DHT22;3085;49.444;11.054;2022-08-11T02:34:27;20.50;82.50
6110;DHT22;3085;49.444;11.054;2022-08-11T02:37:13;20.50;82.60
6110;DHT22;3085;49.444;11.054;2022-08-11T02:39:54;20.20;82.90
6110;DHT22;3085;49.444;11.054;2022-08-11T02:42:34;20.40;82.80
6110;DHT22;3085;49.444;11.054;2022-08-11T02:45:27;20.40;83.20
6110;DHT22;3085;49.444;11.054;2022-08-11T02:48:00;20.30;83.70
6110;DHT22;3085;49.444;11.054;2022-08-11T02:50:51;20.20;83.70
6110;DHT22;3085;49.444;11.054;2022-08-11T02:53:29;20.40;83.80
6110;DHT22;3085;49.444;11.054;2022-08-11T02:56:05;20.30;84.10
6110;DHT22;3085;49.444;11.054;2022-08-11T02:58:43;20.40;83.60
6110;DHT22;3085;49.444;11.054;2022-08-11T03:01:42;20.30;84.10
6110;DHT22;3085;49.444;11.054;2022-08-11T03:04:15;20.40;84.30
6110;DHT22;3085;49.444;11.054;2022-08-11T03:06:48;20.20;84.70
6110;DHT22;3085;49.444;11.054;2022-08-11T03:09:19;20.20;84.50
6110;DHT22;3085;49.444;11.054;2022-08-11T03:11:57;20.30;84.40
6110;DHT22;3085;49.444;11.054;2022-08-11T03:14:57;20.20;84.60
6110;DHT22;3085;49.444;11.054;2022-08-11T03:17:52;20.10;84.80
6110;DHT22;3085;49.444;11.054;2022-08-11T03:20:35;20.10;85.00
6110;DHT22;3085;49.444;11.054;2022-08-11T03:23:10;20.20;84.80
6110;DHT22;3085;49.444;11.054;2022-08-11T03:25:48;20.20;84.90
6110;DHT22;3085;49.444;11.054;2022-08-11T03:28:25;20.10;86.20
6110;DHT22;3085;49.444;11.054;2022-08-11T03:31:06;20.00;86.10
6110;DHT22;3085;49.444;11.054;2022-08-11T03:33:43;20.00;85.40
6110;DHT22;3085;49.444;11.054;2022-08-11T03:36:57;20.10;85.50
6110;DHT22;3085;49.444;11.054;2022-08-11T03:39:45;20.00;85.70
6110;DHT22;3085;49.444;11.054;2022-08-11T03:42:21;19.90;86.10
6110;DHT22;3085;49.444;11.054;2022-08-11T03:45:00;20.00;86.50
6110;DHT22;3085;49.444;11.054;2022-08-11T03:47:41;19.90;86.20
6110;DHT22;3085;49.444;11.054;2022-08-11T03:50:20;20.00;86.30
6110;DHT22;3085;49.444;11.054;2022-08-11T03:52:52;20.10;86.10
6110;DHT22;3085;49.444;11.054;2022-08-11T03:55:32;20.00;86.20
6110;DHT22;3085;49.444;11.054;2022-08-11T04:01:49;19.90;86.60
6110;DHT22;3085;49.444;11.054;2022-08-11T04:08:08;19.90;86.90
6110;DHT22;3085;49.444;11.054;2022-08-11T04:11:04;19.80;87.30
6110;DHT22;3085;49.444;11.054;2022-08-11T04:14:03;19.70;87.60
6110;DHT22;3085;49.444;11.054;2022-08-11T04:17:07;19.70;87.80
6110;DHT22;3085;49.444;11.054;2022-08-11T04:23:02;19.90;87.50
6110;DHT22;3085;49.444;11.054;2022-08-11T04:26:20;19.70;88.00
6110;DHT22;3085;49.444;11.054;2022-08-11T04:29:09;19.60;88.50
6110;DHT22;3085;49.444;11.054;2022-08-11T04:31:49;19.50;88.70
6110;DHT22;3085;49.444;11.054;2022-08-11T04:34:50;19.40;89.40
6110;DHT22;3085;49.444;11.054;2022-08-11T04:38:00;19.40;89.80
6110;DHT22;3085;49.444;11.054;2022-08-11T04:47:11;19.60;89.70
6110;DHT22;3085;49.444;11.054;2022-08-11T04:50:13;19.80;89.60
6110;DHT22;3085;49.444;11.054;2022-08-11T04:53:18;19.80;89.70
6110;DHT22;3085;49.444;11.054;2022-08-11T04:56:08;19.60;90.00
6110;DHT22;3085;49.444;11.054;2022-08-11T05:02:36;19.80;90.10
6110;DHT22;3085;49.444;11.054;2022-08-11T05:05:19;19.60;90.10
6110;DHT22;3085;49.444;11.054;2022-08-11T05:11:29;19.50;90.40
6110;DHT22;3085;49.444;11.054;2022-08-11T05:14:26;19.70;90.30
6110;DHT22;3085;49.444;11.054;2022-08-11T05:17:14;19.70;90.40
6110;DHT22;3085;49.444;11.054;2022-08-11T05:20:00;19.90;90.40
6110;DHT22;3085;49.444;11.054;2022-08-11T05:22:49;19.80;90.30
6110;DHT22;3085;49.444;11.054;2022-08-11T05:25:34;19.70;90.40
6110;DHT22;3085;49.444;11.054;2022-08-11T05:28:29;19.80;90.50
6110;DHT22;3085;49.444;11.054;2022-08-11T05:31:15;19.80;90.40
6110;DHT22;3085;49.444;11.054;2022-08-11T05:34:08;19.90;90.40
6110;DHT22;3085;49.444;11.054;2022-08-11T05:36:59;19.90;90.50
6110;DHT22;3085;49.444;11.054;2022-08-11T05:39:31;19.90;90.60
6110;DHT22;3085;49.444;11.054;2022-08-11T05:42:18;19.80;90.60
6110;DHT22;3085;49.444;11.054;2022-08-11T05:45:12;19.70;90.90
6110;DHT22;3085;49.444;11.054;2022-08-11T05:47:57;19.70;91.00
6110;DHT22;3085;49.444;11.054;2022-08-11T05:50:50;19.50;91.20
6110;DHT22;3085;49.444;11.054;2022-08-11T05:53:43;19.70;91.10
6110;DHT22;3085;49.444;11.054;2022-08-11T05:56:29;19.80;91.30
6110;DHT22;3085;49.444;11.054;2022-08-11T05:58:57;19.80;91.10
6110;DHT22;3085;49.444;11.054;2022-08-11T06:01:26;19.80;91.20
6110;DHT22;3085;49.444;11.054;2022-08-11T06:03:57;19.80;91.10
6110;DHT22;3085;49.444;11.054;2022-08-11T06:06:51;19.80;91.10
6110;DHT22;3085;49.444;11.054;2022-08-11T06:09:26;19.90;91.30
6110;DHT22;3085;49.444;11.054;2022-08-11T06:11:57;19.90;91.10
6110;DHT22;3085;49.444;11.054;2022-08-11T06:14:25;20.00;91.00
6110;DHT22;3085;49.444;11.054;2022-08-11T06:16:56;20.10;91.00
6110;DHT22;3085;49.444;11.054;2022-08-11T06:19:31;20.10;91.10
6110;DHT22;3085;49.444;11.054;2022-08-11T06:22:00;20.00;91.20
6110;DHT22;3085;49.444;11.054;2022-08-11T06:24:30;20.10;91.30
6110;DHT22;3085;49.444;11.054;2022-08-11T06:26:58;20.20;91.30
6110;DHT22;3085;49.444;11.054;2022-08-11T06:29:26;20.10;91.20
6110;DHT22;3085;49.444;11.054;2022-08-11T06:31:56;20.30;91.20
6110;DHT22;3085;49.444;11.054;2022-08-11T06:34:36;20.40;91.30
6110;DHT22;3085;49.444;11.054;2022-08-11T06:37:14;20.50;91.00
6110;DHT22;3085;49.444;11.054;2022-08-11T06:39:49;20.70;90.80
6110;DHT22;3085;49.444;11.054;2022-08-11T06:42:39;20.80;90.80
6110;DHT22;3085;49.444;11.054;2022-08-11T06:45:24;20.80;90.80
6110;DHT22;3085;49.444;11.054;2022-08-11T06:47:55;20.90;90.60
6110;DHT22;3085;49.444;11.054;2022-08-11T06:50:26;20.90;90.70
6110;DHT22;3085;49.444;11.054;2022-08-11T06:53:14;20.90;90.80
6110;DHT22;3085;49.444;11.054;2022-08-11T06:55:45;21.10;90.60
6110;DHT22;3085;49.444;11.054;2022-08-11T06:58:32;21.20;90.40
6110;DHT22;3085;49.444;11.054;2022-08-11T07:01:26;21.30;90.40
6110;DHT22;3085;49.444;11.054;2022-08-11T07:03:58;21.40;90.40
6110;DHT22;3085;49.444;11.054;2022-08-11T07:06:37;21.40;90.30
6110;DHT22;3085;49.444;11.054;2022-08-11T07:09:27;21.60;90.10
6110;DHT22;3085;49.444;11.054;2022-08-11T07:12:45;21.80;89.60
6110;DHT22;3085;49.444;11.054;2022-08-11T07:15:35;21.90;89.00
6110;DHT22;3085;49.444;11.054;2022-08-11T07:18:11;22.10;88.80
6110;DHT22;3085;49.444;11.054;2022-08-11T07:21:08;22.00;88.70
6110;DHT22;3085;49.444;11.054;2022-08-11T07:23:55;22.10;89.40
6110;DHT22;3085;49.444;11.054;2022-08-11T07:26:47;22.20;89.30
6110;DHT22;3085;49.444;11.054;2022-08-11T07:29:34;22.20;88.90
6110;DHT22;3085;49.444;11.054;2022-08-11T07:32:13;22.30;89.00
6110;DHT22;3085;49.444;11.054;2022-08-11T07:34:46;22.40;88.90
6110;DHT22;3085;49.444;11.054;2022-08-11T07:37:16;22.50;88.60
6110;DHT22;3085;49.444;11.054;2022-08-11T07:39:46;22.60;88.20
6110;DHT22;3085;49.444;11.054;2022-08-11T07:42:15;22.80;88.20
6110;DHT22;3085;49.444;11.054;2022-08-11T07:44:46;22.90;87.60
6110;DHT22;3085;49.444;11.054;2022-08-11T07:47:32;23.00;87.00
6110;DHT22;3085;49.444;11.054;2022-08-11T07:50:18;23.10;86.40
6110;DHT22;3085;49.444;11.054;2022-08-11T07:53:03;23.30;86.30
6110;DHT22;3085;49.444;11.054;2022-08-11T07:55:31;23.40;85.70
6110;DHT22;3085;49.444;11.054;2022-08-11T07:57:59;23.50;85.60
6110;DHT22;3085;49.444;11.054;2022-08-11T08:00:49;23.60;85.00
6110;DHT22;3085;49.444;11.054;2022-08-11T08:03:34;23.70;84.30
6110;DHT22;3085;49.444;11.054;2022-08-11T08:06:20;23.80;83.70
6110;DHT22;3085;49.444;11.054;2022-08-11T08:09:05;23.80;82.10
6110;DHT22;3085;49.444;11.054;2022-08-11T08:11:51;23.80;82.10
6110;DHT22;3085;49.444;11.054;2022-08-11T08:14:37;23.90;82.50
6110;DHT22;3085;49.444;11.054;2022-08-11T08:17:23;24.00;82.40
6110;DHT22;3085;49.444;11.054;2022-08-11T08:20:11;24.00;82.00
6110;DHT22;3085;49.444;11.054;2022-08-11T08:22:39;24.20;81.50
6110;DHT22;3085;49.444;11.054;2022-08-11T08:25:08;24.10;80.10
6110;DHT22;3085;49.444;11.054;2022-08-11T08:27:38;24.20;80.50
6110;DHT22;3085;49.444;11.054;2022-08-11T08:30:09;24.10;80.50
6110;DHT22;3085;49.444;11.054;2022-08-11T08:32:55;24.40;75.80
6110;DHT22;3085;49.444;11.054;2022-08-11T08:35:22;24.40;77.50
6110;DHT22;3085;49.444;11.054;2022-08-11T08:37:49;24.30;77.70
6110;DHT22;3085;49.444;11.054;2022-08-11T08:40:19;24.50;77.90
6110;DHT22;3085;49.444;11.054;2022-08-11T08:42:48;24.50;76.40
6110;DHT22;3085;49.444;11.054;2022-08-11T08:45:18;24.70;77.00
6110;DHT22;3085;49.444;11.054;2022-08-11T08:47:47;24.70;77.40
6110;DHT22;3085;49.444;11.054;2022-08-11T08:50:21;24.70;75.80
6110;DHT22;3085;49.444;11.054;2022-08-11T08:52:53;24.90;76.00
6110;DHT22;3085;49.444;11.054;2022-08-11T08:55:22;24.90;75.40
6110;DHT22;3085;49.444;11.054;2022-08-11T08:57:51;25.00;74.10
6110;DHT22;3085;49.444;11.054;2022-08-11T09:00:20;24.90;74.50
6110;DHT22;3085;49.444;11.054;2022-08-11T09:02:48;24.90;74.20
6110;DHT22;3085;49.444;11.054;2022-08-11T09:05:18;25.00;73.50
6110;DHT22;3085;49.444;11.054;2022-08-11T09:07:46;25.00;74.30
6110;DHT22;3085;49.444;11.054;2022-08-11T09:10:18;25.10;73.50
6110;DHT22;3085;49.444;11.054;2022-08-11T09:12:45;25.20;72.90
6110;DHT22;3085;49.444;11.054;2022-08-11T09:15:13;25.30;72.70
6110;DHT22;3085;49.444;11.054;2022-08-11T09:17:44;25.40;72.20
6110;DHT22;3085;49.444;11.054;2022-08-11T09:20:12;25.40;71.90
6110;DHT22;3085;49.444;11.054;2022-08-11T09:22:42;25.50;71.10
6110;DHT22;3085;49.444;11.054;2022-08-11T09:25:30;25.50;70.50
6110;DHT22;3085;49.444;11.054;2022-08-11T09:28:15;25.50;70.50
6110;DHT22;3085;49.444;11.054;2022-08-11T09:30:44;25.60;71.30
6110;DHT22;3085;49.444;11.054;2022-08-11T09:33:14;25.60;71.80
6110;DHT22;3085;49.444;11.054;2022-08-11T09:35:42;25.60;72.00
6110;DHT22;3085;49.444;11.054;2022-08-11T09:38:15;25.70;72.80
6110;DHT22;3085;49.444;11.054;2022-08-11T09:41:02;25.70;72.70
6110;DHT22;3085;49.444;11.054;2022-08-11T09:43:30;25.60;68.70
6110;DHT22;3085;49.444;11.054;2022-08-11T09:46:21;25.70;68.50
6110;DHT22;3085;49.444;11.054;2022-08-11T09:48:51;25.70;69.10
6110;DHT22;3085;49.444;11.054;2022-08-11T09:51:20;25.70;68.90
6110;DHT22;3085;49.444;11.054;2022-08-11T09:53:49;25.80;69.60
6110;DHT22;3085;49.444;11.054;2022-08-11T09:56:20;25.80;69.40
6110;DHT22;3085;49.444;11.054;2022-08-11T09:59:05;25.80;67.00
6110;DHT22;3085;49.444;11.054;2022-08-11T10:01:34;26.00;66.10
6110;DHT22;3085;49.444;11.054;2022-08-11T10:04:09;25.90;65.60
6110;DHT22;3085;49.444;11.054;2022-08-11T10:06:40;26.00;65.40
6110;DHT22;3085;49.444;11.054;2022-08-11T10:09:28;25.90;65.30
6110;DHT22;3085;49.444;11.054;2022-08-11T10:11:57;25.90;65.50
6110;DHT22;3085;49.444;11.054;2022-08-11T10:14:26;25.90;65.00
6110;DHT22;3085;49.444;11.054;2022-08-11T10:17:13;25.90;65.50
6110;DHT22;3085;49.444;11.054;2022-08-11T10:19:42;26.10;66.40
6110;DHT22;3085;49.444;11.054;2022-08-11T10:22:11;26.20;65.90
6110;DHT22;3085;49.444;11.054;2022-08-11T10:25:00;26.20;65.70
6110;DHT22;3085;49.444;11.054;2022-08-11T10:27:45;26.20;64.40
6110;DHT22;3085;49.444;11.054;2022-08-11T10:30:16;26.40;65.20
6110;DHT22;3085;49.444;11.054;2022-08-11T10:33:02;26.50;65.50
6110;DHT22;3085;49.444;11.054;2022-08-11T10:35:47;26.40;63.50
6110;DHT22;3085;49.444;11.054;2022-08-11T10:38:14;26.40;65.20
6110;DHT22;3085;49.444;11.054;2022-08-11T10:40:44;26.50;64.80
6110;DHT22;3085;49.444;11.054;2022-08-11T10:43:32;26.60;65.40
6110;DHT22;3085;49.444;11.054;2022-08-11T10:45:59;26.60;64.60
6110;DHT22;3085;49.444;11.054;2022-08-11T10:48:43;26.60;64.40
6110;DHT22;3085;49.444;11.054;2022-08-11T10:51:10;26.60;64.40
6110;DHT22;3085;49.444;11.054;2022-08-11T10:53:41;26.70;64.70
6110;DHT22;3085;49.444;11.054;2022-08-11T10:56:29;26.80;64.00
6110;DHT22;3085;49.444;11.054;2022-08-11T10:59:14;26.80;63.80
6110;DHT22;3085;49.444;11.054;2022-08-11T11:01:42;26.80;64.40
6110;DHT22;3085;49.444;11.054;2022-08-11T11:04:13;26.80;64.90
6110;DHT22;3085;49.444;11.054;2022-08-11T11:06:49;26.90;64.90
6110;DHT22;3085;49.444;11.054;2022-08-11T11:09:19;27.10;64.30
6110;DHT22;3085;49.444;11.054;2022-08-11T11:11:52;27.10;62.30
6110;DHT22;3085;49.444;11.054;2022-08-11T11:14:40;27.10;63.70
6110;DHT22;3085;49.444;11.054;2022-08-11T11:17:31;27.10;60.50
6110;DHT22;3085;49.444;11.054;2022-08-11T11:20:21;27.30;60.50
6110;DHT22;3085;49.444;11.054;2022-08-11T11:22:50;27.10;57.30
6110;DHT22;3085;49.444;11.054;2022-08-11T11:25:29;27.10;57.70
6110;DHT22;3085;49.444;11.054;2022-08-11T11:28:25;27.00;58.10
6110;DHT22;3085;49.444;11.054;2022-08-11T11:31:05;27.10;59.80
6110;DHT22;3085;49.444;11.054;2022-08-11T11:33:49;27.30;60.70
6110;DHT22;3085;49.444;11.054;2022-08-11T11:36:26;27.30;60.50
6110;DHT22;3085;49.444;11.054;2022-08-11T11:38:54;27.40;59.70
6110;DHT22;3085;49.444;11.054;2022-08-11T11:41:22;27.40;59.40
6110;DHT22;3085;49.444;11.054;2022-08-11T11:43:55;27.40;59.50
6110;DHT22;3085;49.444;11.054;2022-08-11T11:46:25;27.50;57.20
6110;DHT22;3085;49.444;11.054;2022-08-11T11:48:53;27.50;58.10
6110;DHT22;3085;49.444;11.054;2022-08-11T11:51:21;27.50;57.60
6110;DHT22;3085;49.444;11.054;2022-08-11T11:53:48;27.50;58.40
6110;DHT22;3085;49.444;11.054;2022-08-11T11:56:16;27.50;58.30
6110;DHT22;3085;49.444;11.054;2022-08-11T11:58:43;27.50;58.40
6110;DHT22;3085;49.444;11.054;2022-08-11T12:01:29;27.60;57.20
6110;DHT22;3085;49.444;11.054;2022-08-11T12:04:00;27.60;58.50
6110;DHT22;3085;49.444;11.054;2022-08-11T12:06:31;27.60;58.20
6110;DHT22;3085;49.444;11.054;2022-08-11T12:08:59;27.70;59.40
6110;DHT22;3085;49.444;11.054;2022-08-11T12:11:27;27.70;58.10
6110;DHT22;3085;49.444;11.054;2022-08-11T12:14:15;27.50;57.60
6110;DHT22;3085;49.444;11.054;2022-08-11T12:16:45;27.70;57.90
6110;DHT22;3085;49.444;11.054;2022-08-11T12:19:15;27.80;58.30
6110;DHT22;3085;49.444;11.054;2022-08-11T12:21:43;28.00;56.40
6110;DHT22;3085;49.444;11.054;2022-08-11T12:24:30;28.10;56.40
6110;DHT22;3085;49.444;11.054;2022-08-11T12:27:15;28.10;56.20
6110;DHT22;3085;49.444;11.054;2022-08-11T12:29:54;28.10;56.00
6110;DHT22;3085;49.444;11.054;2022-08-11T12:32:24;28.00;56.10
6110;DHT22;3085;49.444;11.054;2022-08-11T12:34:52;28.10;56.00
6110;DHT22;3085;49.444;11.054;2022-08-11T12:37:27;28.30;55.30
6110;DHT22;3085;49.444;11.054;2022-08-11T12:39:58;28.30;54.60
6110;DHT22;3085;49.444;11.054;2022-08-11T12:42:44;28.20;54.00
6110;DHT22;3085;49.444;11.054;2022-08-11T12:45:30;28.20;55.30
6110;DHT22;3085;49.444;11.054;2022-08-11T12:48:03;28.30;55.10
6110;DHT22;3085;49.444;11.054;2022-08-11T12:50:53;28.50;55.00
6110;DHT22;3085;49.444;11.054;2022-08-11T12:53:44;28.30;55.10
6110;DHT22;3085;49.444;11.054;2022-08-11T12:56:12;28.50;56.00
6110;DHT22;3085;49.444;11.054;2022-08-11T12:58:57;28.60;54.90
6110;DHT22;3085;49.444;11.054;2022-08-11T13:01:42;28.40;54.10
6110;DHT22;3085;49.444;11.054;2022-08-11T13:04:29;28.40;52.80
6110;DHT22;3085;49.444;11.054;2022-08-11T13:07:15;28.50;53.80
6110;DHT22;3085;49.444;11.054;2022-08-11T13:09:43;28.70;54.60
6110;DHT22;3085;49.444;11.054;2022-08-11T13:12:11;28.70;55.30
6110;DHT22;3085;49.444;11.054;2022-08-11T13:14:57;28.90;54.20
6110;DHT22;3085;49.444;11.054;2022-08-11T13:17:25;28.90;54.50
6110;DHT22;3085;49.444;11.054;2022-08-11T13:19:56;29.00;54.10
6110;DHT22;3085;49.444;11.054;2022-08-11T13:22:25;28.90;53.30
6110;DHT22;3085;49.444;11.054;2022-08-11T13:24:52;28.80;53.00
6110;DHT22;3085;49.444;11.054;2022-08-11T13:27:20;28.90;51.80
6110;DHT22;3085;49.444;11.054;2022-08-11T13:29:48;28.90;52.40
6110;DHT22;3085;49.444;11.054;2022-08-11T13:32:19;28.80;53.40
6110;DHT22;3085;49.444;11.054;2022-08-11T13:34:47;28.80;53.80
6110;DHT22;3085;49.444;11.054;2022-08-11T13:37:19;28.90;54.20
6110;DHT22;3085;49.444;11.054;2022-08-11T13:39:46;28.90;53.60
6110;DHT22;3085;49.444;11.054;2022-08-11T13:42:14;29.00;54.80
6110;DHT22;3085;49.444;11.054;2022-08-11T13:44:45;29.10;53.60
6110;DHT22;3085;49.444;11.054;2022-08-11T13:47:12;29.10;53.20
6110;DHT22;3085;49.444;11.054;2022-08-11T13:49:41;29.20;52.60
6110;DHT22;3085;49.444;11.054;2022-08-11T13:52:10;29.20;53.50
6110;DHT22;3085;49.444;11.054;2022-08-11T13:54:41;29.30;52.80
6110;DHT22;3085;49.444;11.054;2022-08-11T13:57:11;29.30;53.10
6110;DHT22;3085;49.444;11.054;2022-08-11T13:59:39;29.50;53.90
6110;DHT22;3085;49.444;11.054;2022-08-11T14:02:13;29.60;53.70
6110;DHT22;3085;49.444;11.054;2022-08-11T14:04:42;29.50;53.80
6110;DHT22;3085;49.444;11.054;2022-08-11T14:07:13;29.40;53.80
6110;DHT22;3085;49.444;11.054;2022-08-11T14:09:44;29.40;53.40
6110;DHT22;3085;49.444;11.054;2022-08-11T14:12:14;29.30;53.80
6110;DHT22;3085;49.444;11.054;2022-08-11T14:15:02;29.40;55.00
6110;DHT22;3085;49.444;11.054;2022-08-11T14:17:31;29.40;54.40
6110;DHT22;3085;49.444;11.054;2022-08-11T14:20:03;29.50;53.20
6110;DHT22;3085;49.444;11.054;2022-08-11T14:22:31;29.60;53.40
6110;DHT22;3085;49.444;11.054;2022-08-11T14:24:59;29.50;52.10
6110;DHT22;3085;49.444;11.054;2022-08-11T14:27:27;29.50;51.70
6110;DHT22;3085;49.444;11.054;2022-08-11T14:29:56;29.60;52.20
6110;DHT22;3085;49.444;11.054;2022-08-11T14:32:24;29.60;52.20
6110;DHT22;3085;49.444;11.054;2022-08-11T14:34:52;29.60;51.80
6110;DHT22;3085;49.444;11.054;2022-08-11T14:37:20;29.90;53.20
6110;DHT22;3085;49.444;11.054;2022-08-11T14:39:50;30.00;52.50
6110;DHT22;3085;49.444;11.054;2022-08-11T14:42:20;29.90;53.20
6110;DHT22;3085;49.444;11.054;2022-08-11T14:45:08;29.90;52.40
6110;DHT22;3085;49.444;11.054;2022-08-11T14:48:04;30.00;51.50
6110;DHT22;3085;49.444;11.054;2022-08-11T14:50:34;29.90;52.90
6110;DHT22;3085;49.444;11.054;2022-08-11T14:53:03;29.80;52.70
6110;DHT22;3085;49.444;11.054;2022-08-11T14:55:34;29.70;52.30
6110;DHT22;3085;49.444;11.054;2022-08-11T14:58:21;29.70;52.50
6110;DHT22;3085;49.444;11.054;2022-08-11T15:00:51;29.70;51.80
6110;DHT22;3085;49.444;11.054;2022-08-11T15:03:19;29.70;51.80
6110;DHT22;3085;49.444;11.054;2022-08-11T15:05:47;29.60;52.50
6110;DHT22;3085;49.444;11.054;2022-08-11T15:08:16;29.70;52.40
6110;DHT22;3085;49.444;11.054;2022-08-11T15:10:43;29.60;52.90
6110;DHT22;3085;49.444;11.054;2022-08-11T15:13:11;29.60;53.10
6110;DHT22;3085;49.444;11.054;2022-08-11T15:15:44;29.50;53.20
6110;DHT22;3085;49.444;11.054;2022-08-11T15:18:30;30.00;51.60
6110;DHT22;3085;49.444;11.054;2022-08-11T15:20:57;30.00;50.90
6110;DHT22;3085;49.444;11.054;2022-08-11T15:23:43;29.90;51.00
6110;DHT22;3085;49.444;11.054;2022-08-11T15:26:32;30.10;51.70
6110;DHT22;3085;49.444;11.054;2022-08-11T15:29:33;30.00;49.80
6110;DHT22;3085;49.444;11.054;2022-08-11T15:32:22;30.10;51.50
6110;DHT22;3085;49.444;11.054;2022-08-11T15:35:08;30.30;51.20
6110;DHT22;3085;49.444;11.054;2022-08-11T15:37:57;30.20;50.70
6110;DHT22;3085;49.444;11.054;2022-08-11T15:40:28;30.10;51.50
6110;DHT22;3085;49.444;11.054;2022-08-11T15:43:15;30.10;51.80
6110;DHT22;3085;49.444;11.054;2022-08-11T15:46:07;30.20;52.50
6110;DHT22;3085;49.444;11.054;2022-08-11T15:48:40;30.30;51.80
6110;DHT22;3085;49.444;11.054;2022-08-11T15:51:10;30.40;51.00
6110;DHT22;3085;49.444;11.054;2022-08-11T15:53:42;30.40;50.90
6110;DHT22;3085;49.444;11.054;2022-08-11T15:56:18;30.30;50.20
6110;DHT22;3085;49.444;11.054;2022-08-11T15:58:48;30.30;51.20
6110;DHT22;3085;49.444;11.054;2022-08-11T16:01:35;30.20;50.10
6110;DHT22;3085;49.444;11.054;2022-08-11T16:04:24;30.20;51.80
6110;DHT22;3085;49.444;11.054;2022-08-11T16:06:54;30.40;50.70
6110;DHT22;3085;49.444;11.054;2022-08-11T16:09:27;30.40;51.30
6110;DHT22;3085;49.444;11.054;2022-08-11T16:11:59;30.60;51.60
6110;DHT22;3085;49.444;11.054;2022-08-11T16:14:28;30.60;52.80
6110;DHT22;3085;49.444;11.054;2022-08-11T16:17:15;30.70;51.90
6110;DHT22;3085;49.444;11.054;2022-08-11T16:19:48;30.60;50.80
6110;DHT22;3085;49.444;11.054;2022-08-11T16:22:22;30.50;51.10
6110;DHT22;3085;49.444;11.054;2022-08-11T16:25:00;30.60;51.60
6110;DHT22;3085;49.444;11.054;2022-08-11T16:27:29;30.60;51.90
6110;DHT22;3085;49.444;11.054;2022-08-11T16:29:59;30.60;51.30
6110;DHT22;3085;49.444;11.054;2022-08-11T16:32:30;30.70;51.50
6110;DHT22;3085;49.444;11.054;2022-08-11T16:35:01;30.60;51.80
6110;DHT22;3085;49.444;11.054;2022-08-11T16:37:46;30.60;51.50
6110;DHT22;3085;49.444;11.054;2022-08-11T16:40:31;30.70;51.70
6110;DHT22;3085;49.444;11.054;2022-08-11T16:43:00;30.70;51.70
6110;DHT22;3085;49.444;11.054;2022-08-11T16:45:47;30.80;52.20
6110;DHT22;3085;49.444;11.054;2022-08-11T16:48:34;30.60;52.90
6110;DHT22;3085;49.444;11.054;2022-08-11T16:51:04;30.70;52.10
6110;DHT22;3085;49.444;11.054;2022-08-11T16:53:31;30.90;51.70
6110;DHT22;3085;49.444;11.054;2022-08-11T16:56:03;31.00;52.20
6110;DHT22;3085;49.444;11.054;2022-08-11T16:58:34;31.40;52.10
6110;DHT22;3085;49.444;11.054;2022-08-11T17:01:20;31.70;51.80
6110;DHT22;3085;49.444;11.054;2022-08-11T17:03:52;32.50;51.70
6110;DHT22;3085;49.444;11.054;2022-08-11T17:06:44;33.40;50.70
6110;DHT22;3085;49.444;11.054;2022-08-11T17:09:31;34.40;49.20
6110;DHT22;3085;49.444;11.054;2022-08-11T17:12:19;34.80;49.10
6110;DHT22;3085;49.444;11.054;2022-08-11T17:15:09;34.40;48.60
6110;DHT22;3085;49.444;11.054;2022-08-11T17:17:58;34.50;49.60
6110;DHT22;3085;49.444;11.054;2022-08-11T17:20:27;35.70;48.90
6110;DHT22;3085;49.444;11.054;2022-08-11T17:22:57;36.00;46.90
6110;DHT22;3085;49.444;11.054;2022-08-11T17:25:43;36.50;47.30
6110;DHT22;3085;49.444;11.054;2022-08-11T17:28:14;36.00;46.20
6110;DHT22;3085;49.444;11.054;2022-08-11T17:30:43;35.70;46.60
6110;DHT22;3085;49.444;11.054;2022-08-11T17:33:28;36.20;46.50
6110;DHT22;3085;49.444;11.054;2022-08-11T17:36:17;35.80;47.10